sensor_id;sensor_type;location;lat;lon;timestamp;temperature;humidity
26599;DHT22;14240;51.064;16.612;2022-11-06T00:01:08;6.10;99.90
26599;DHT22;14240;51.064;16.612;2022-11-06T00:03:34;6.00;99.90
26599;DHT22;14240;51.064;16.612;2022-11-06T00:06:08;6.10;99.90
26599;DHT22;14240;51.064;16.612;2022-11-06T00:08:53;6.00;99.90
26599;DHT22;14240;51.064;16.612;2022-11-06T00:11:19;5.80;99.90
26599;DHT22;14240;51.064;16.612;2022-11-06T00:13:45;6.00;99.90
26599;DHT22;14240;51.064;16.612;2022-11-06T00:16:14;6.00;99.90
26599;DHT22;14240;51.064;16.612;2022-11-06T00:18:40;6.00;99.90
26599;DHT22;14240;51.064;16.612;2022-11-06T00:21:12;6.00;99.90
26599;DHT22;14240;51.064;16.612;2022-11-06T00:23:38;6.00;99.90
26599;DHT22;14240;51.064;16.612;2022-11-06T00:26:09;6.00;99.90
26599;DHT22;14240;51.064;16.612;2022-11-06T00:28:35;6.00;99.90
26599;DHT22;14240;51.064;16.612;2022-11-06T00:31:10;6.00;99.90
26599;DHT22;14240;51.064;16.612;2022-11-06T00:33:36;6.00;99.90
26599;DHT22;14240;51.064;16.612;2022-11-06T00:36:04;7.10;99.90
26599;DHT22;14240;51.064;16.612;2022-11-06T00:38:30;5.90;99.90
26599;DHT22;14240;51.064;16.612;2022-11-06T00:40:56;5.90;99.90
26599;DHT22;14240;51.064;16.612;2022-11-06T00:43:22;5.90;99.90
26599;DHT22;14240;51.064;16.612;2022-11-06T00:45:48;5.90;99.90
26599;DHT22;14240;51.064;16.612;2022-11-06T00:48:13;5.90;99.90
26599;DHT22;14240;51.064;16.612;2022-11-06T00:50:39;5.90;99.90
26599;DHT22;14240;51.064;16.612;2022-11-06T00:53:04;5.90;99.90
26599;DHT22;14240;51.064;16.612;2022-11-06T00:55:30;5.90;99.90
26599;DHT22;14240;51.064;16.612;2022-11-06T00:57:57;5.90;99.90
26599;DHT22;14240;51.064;16.612;2022-11-06T01:00:22;5.80;99.90
26599;DHT22;14240;51.064;16.612;2022-11-06T01:02:48;5.80;99.90
26599;DHT22;14240;51.064;16.612;2022-11-06T01:05:14;5.80;99.90
26599;DHT22;14240;51.064;16.612;2022-11-06T01:07:40;5.80;99.90
26599;DHT22;14240;51.064;16.612;2022-11-06T01:10:07;5.80;99.90
26599;DHT22;14240;51.064;16.612;2022-11-06T01:12:33;5.70;99.90
26599;DHT22;14240;51.064;16.612;2022-11-06T01:15:00;5.70;99.90
26599;DHT22;14240;51.064;16.612;2022-11-06T01:17:26;5.70;99.90
26599;DHT22;14240;51.064;16.612;2022-11-06T01:19:52;5.70;99.90
26599;DHT22;14240;51.064;16.612;2022-11-06T01:22:18;5.70;99.90
26599;DHT22;14240;51.064;16.612;2022-11-06T01:24:43;5.70;99.90
26599;DHT22;14240;51.064;16.612;2022-11-06T01:27:09;5.70;99.90
26599;DHT22;14240;51.064;16.612;2022-11-06T01:29:35;5.70;99.90
26599;DHT22;14240;51.064;16.612;2022-11-06T01:32:01;5.70;99.90
26599;DHT22;14240;51.064;16.612;2022-11-06T01:34:27;5.60;99.90
26599;DHT22;14240;51.064;16.612;2022-11-06T01:36:53;5.70;99.90
26599;DHT22;14240;51.064;16.612;2022-11-06T01:39:18;5.70;99.90
26599;DHT22;14240;51.064;16.612;2022-11-06T01:41:49;5.60;99.90
26599;DHT22;14240;51.064;16.612;2022-11-06T01:46:56;5.60;99.90
26599;DHT22;14240;51.064;16.612;2022-11-06T01:49:22;5.60;99.90
26599;DHT22;14240;51.064;16.612;2022-11-06T01:51:54;5.60;99.90
26599;DHT22;14240;51.064;16.612;2022-11-06T01:54:22;5.60;99.90
26599;DHT22;14240;51.064;16.612;2022-11-06T01:56:50;5.60;99.90
26599;DHT22;14240;51.064;16.612;2022-11-06T01:59:22;5.60;99.90
26599;DHT22;14240;51.064;16.612;2022-11-06T02:01:48;5.60;99.90
26599;DHT22;14240;51.064;16.612;2022-11-06T02:04:20;5.50;99.90
26599;DHT22;14240;51.064;16.612;2022-11-06T02:06:47;5.50;99.90
26599;DHT22;14240;51.064;16.612;2022-11-06T02:09:14;5.60;99.90
26599;DHT22;14240;51.064;16.612;2022-11-06T02:11:42;5.60;99.90
26599;DHT22;14240;51.064;16.612;2022-11-06T02:17:39;5.60;99.90
26599;DHT22;14240;51.064;16.612;2022-11-06T02:29:20;5.40;99.90
26599;DHT22;14240;51.064;16.612;2022-11-06T02:31:49;5.40;99.90
26599;DHT22;14240;51.064;16.612;2022-11-06T02:34:18;5.40;99.90
26599;DHT22;14240;51.064;16.612;2022-11-06T02:37:02;5.40;99.90
26599;DHT22;14240;51.064;16.612;2022-11-06T02:39:30;5.40;99.90
26599;DHT22;14240;51.064;16.612;2022-11-06T02:41:58;5.40;99.90
26599;DHT22;14240;51.064;16.612;2022-11-06T02:44:26;5.40;99.90
26599;DHT22;14240;51.064;16.612;2022-11-06T02:46:56;5.40;99.90
26599;DHT22;14240;51.064;16.612;2022-11-06T02:49:45;5.40;99.90
26599;DHT22;14240;51.064;16.612;2022-11-06T02:52:24;5.70;99.90
26599;DHT22;14240;51.064;16.612;2022-11-06T02:54:58;5.30;99.90
26599;DHT22;14240;51.064;16.612;2022-11-06T02:57:25;5.20;99.90
26599;DHT22;14240;51.064;16.612;2022-11-06T03:00:08;5.10;99.90
26599;DHT22;14240;51.064;16.612;2022-11-06T03:02:38;5.10;99.90
26599;DHT22;14240;51.064;16.612;2022-11-06T03:05:31;5.10;99.90
26599;DHT22;14240;51.064;16.612;2022-11-06T03:08:19;5.10;99.90
26599;DHT22;14240;51.064;16.612;2022-11-06T03:10:57;5.10;99.90
26599;DHT22;14240;51.064;16.612;2022-11-06T03:19:06;5.10;99.90
26599;DHT22;14240;51.064;16.612;2022-11-06T03:24:28;5.10;99.90
26599;DHT22;14240;51.064;16.612;2022-11-06T03:26:56;5.10;99.90
26599;DHT22;14240;51.064;16.612;2022-11-06T03:29:58;5.10;99.90
26599;DHT22;14240;51.064;16.612;2022-11-06T03:32:31;5.10;99.90
26599;DHT22;14240;51.064;16.612;2022-11-06T03:35:11;5.10;99.90
26599;DHT22;14240;51.064;16.612;2022-11-06T03:40:28;5.10;99.90
26599;DHT22;14240;51.064;16.612;2022-11-06T03:43:02;5.10;99.90
26599;DHT22;14240;51.064;16.612;2022-11-06T03:45:31;5.10;99.90
26599;DHT22;14240;51.064;16.612;2022-11-06T03:48:03;5.10;99.90
26599;DHT22;14240;51.064;16.612;2022-11-06T03:50:41;5.10;99.90
26599;DHT22;14240;51.064;16.612;2022-11-06T03:53:16;5.10;99.90
26599;DHT22;14240;51.064;16.612;2022-11-06T03:55:51;5.50;99.90
26599;DHT22;14240;51.064;16.612;2022-11-06T03:58:27;5.10;99.90
26599;DHT22;14240;51.064;16.612;2022-11-06T04:00:55;5.00;99.90
26599;DHT22;14240;51.064;16.612;2022-11-06T04:03:23;5.00;99.90
26599;DHT22;14240;51.064;16.612;2022-11-06T04:05:57;5.00;99.90
26599;DHT22;14240;51.064;16.612;2022-11-06T04:08:26;5.00;99.90
26599;DHT22;14240;51.064;16.612;2022-11-06T04:11:16;5.00;99.90
26599;DHT22;14240;51.064;16.612;2022-11-06T04:14:02;4.90;99.90
26599;DHT22;14240;51.064;16.612;2022-11-06T04:16:39;5.00;99.90
26599;DHT22;14240;51.064;16.612;2022-11-06T04:19:18;4.80;99.90
26599;DHT22;14240;51.064;16.612;2022-11-06T04:30:14;4.90;99.90
26599;DHT22;14240;51.064;16.612;2022-11-06T04:32:56;4.90;99.90
26599;DHT22;14240;51.064;16.612;2022-11-06T04:35:53;4.90;99.90
26599;DHT22;14240;51.064;16.612;2022-11-06T04:43:49;5.00;99.90
26599;DHT22;14240;51.064;16.612;2022-11-06T04:46:23;5.00;99.90
26599;DHT22;14240;51.064;16.612;2022-11-06T04:48:50;5.00;99.90
26599;DHT22;14240;51.064;16.612;2022-11-06T04:51:20;5.00;99.90
26599;DHT22;14240;51.064;16.612;2022-11-06T04:53:48;4.90;99.90
26599;DHT22;14240;51.064;16.612;2022-11-06T04:56:31;4.90;99.90
26599;DHT22;14240;51.064;16.612;2022-11-06T04:58:57;4.90;99.90
26599;DHT22;14240;51.064;16.612;2022-11-06T05:01:23;4.90;99.90
26599;DHT22;14240;51.064;16.612;2022-11-06T05:03:49;4.90;99.90
26599;DHT22;14240;51.064;16.612;2022-11-06T05:06:14;4.90;99.90
26599;DHT22;14240;51.064;16.612;2022-11-06T05:08:40;4.90;99.90
26599;DHT22;14240;51.064;16.612;2022-11-06T05:11:06;4.90;99.90
26599;DHT22;14240;51.064;16.612;2022-11-06T05:13:32;4.90;99.90
26599;DHT22;14240;51.064;16.612;2022-11-06T05:15:58;4.90;99.90
26599;DHT22;14240;51.064;16.612;2022-11-06T05:18:25;4.90;99.90
26599;DHT22;14240;51.064;16.612;2022-11-06T05:20:51;4.90;99.90
26599;DHT22;14240;51.064;16.612;2022-11-06T05:23:37;4.90;99.90
26599;DHT22;14240;51.064;16.612;2022-11-06T05:26:04;4.90;99.90
26599;DHT22;14240;51.064;16.612;2022-11-06T05:28:30;4.90;99.90
26599;DHT22;14240;51.064;16.612;2022-11-06T05:30:56;4.90;99.90
26599;DHT22;14240;51.064;16.612;2022-11-06T05:33:21;4.90;99.90
26599;DHT22;14240;51.064;16.612;2022-11-06T05:35:48;4.90;99.90
26599;DHT22;14240;51.064;16.612;2022-11-06T05:38:14;4.90;99.90
26599;DHT22;14240;51.064;16.612;2022-11-06T05:40:40;4.80;99.90
26599;DHT22;14240;51.064;16.612;2022-11-06T05:43:05;4.80;99.90
26599;DHT22;14240;51.064;16.612;2022-11-06T05:45:31;4.90;99.90
26599;DHT22;14240;51.064;16.612;2022-11-06T05:47:57;4.90;99.90
26599;DHT22;14240;51.064;16.612;2022-11-06T05:50:23;4.80;99.90
26599;DHT22;14240;51.064;16.612;2022-11-06T05:52:48;4.90;99.90
26599;DHT22;14240;51.064;16.612;2022-11-06T05:55:14;4.90;99.90
26599;DHT22;14240;51.064;16.612;2022-11-06T05:57:40;4.90;99.90
26599;DHT22;14240;51.064;16.612;2022-11-06T06:00:07;4.90;99.90
26599;DHT22;14240;51.064;16.612;2022-11-06T06:02:33;4.90;99.90
26599;DHT22;14240;51.064;16.612;2022-11-06T06:05:00;4.90;99.90
26599;DHT22;14240;51.064;16.612;2022-11-06T06:07:25;4.90;99.90
26599;DHT22;14240;51.064;16.612;2022-11-06T06:09:51;5.00;99.90
26599;DHT22;14240;51.064;16.612;2022-11-06T06:12:17;5.00;99.90
26599;DHT22;14240;51.064;16.612;2022-11-06T06:14:43;5.00;99.90
26599;DHT22;14240;51.064;16.612;2022-11-06T06:17:08;5.00;99.90
26599;DHT22;14240;51.064;16.612;2022-11-06T06:19:34;5.00;99.90
26599;DHT22;14240;51.064;16.612;2022-11-06T06:22:00;5.10;99.90
26599;DHT22;14240;51.064;16.612;2022-11-06T06:24:25;5.10;99.90
26599;DHT22;14240;51.064;16.612;2022-11-06T06:26:51;5.10;99.90
26599;DHT22;14240;51.064;16.612;2022-11-06T06:29:16;5.20;99.90
26599;DHT22;14240;51.064;16.612;2022-11-06T06:31:43;5.10;99.90
26599;DHT22;14240;51.064;16.612;2022-11-06T06:34:08;5.20;99.90
26599;DHT22;14240;51.064;16.612;2022-11-06T06:36:34;5.20;99.90
26599;DHT22;14240;51.064;16.612;2022-11-06T06:39:00;5.20;99.90
26599;DHT22;14240;51.064;16.612;2022-11-06T06:41:25;5.30;99.90
26599;DHT22;14240;51.064;16.612;2022-11-06T06:43:51;5.30;99.90
26599;DHT22;14240;51.064;16.612;2022-11-06T06:46:17;5.40;99.90
26599;DHT22;14240;51.064;16.612;2022-11-06T06:48:42;5.40;99.90
26599;DHT22;14240;51.064;16.612;2022-11-06T06:51:08;5.50;99.90
26599;DHT22;14240;51.064;16.612;2022-11-06T06:53:34;5.50;99.90
26599;DHT22;14240;51.064;16.612;2022-11-06T06:56:00;5.60;99.90
26599;DHT22;14240;51.064;16.612;2022-11-06T06:58:27;5.70;99.90
26599;DHT22;14240;51.064;16.612;2022-11-06T07:00:53;5.60;99.90
26599;DHT22;14240;51.064;16.612;2022-11-06T07:03:20;5.70;99.90
26599;DHT22;14240;51.064;16.612;2022-11-06T07:05:45;5.80;99.90
26599;DHT22;14240;51.064;16.612;2022-11-06T07:08:11;5.80;99.90
26599;DHT22;14240;51.064;16.612;2022-11-06T07:10:37;5.90;99.90
26599;DHT22;14240;51.064;16.612;2022-11-06T07:13:04;5.90;99.90
26599;DHT22;14240;51.064;16.612;2022-11-06T07:15:31;5.90;99.90
26599;DHT22;14240;51.064;16.612;2022-11-06T07:18:04;5.90;99.90
26599;DHT22;14240;51.064;16.612;2022-11-06T07:20:31;6.00;99.90
26599;DHT22;14240;51.064;16.612;2022-11-06T07:22:57;6.00;99.90
26599;DHT22;14240;51.064;16.612;2022-11-06T07:25:23;6.10;99.90
26599;DHT22;14240;51.064;16.612;2022-11-06T07:27:49;6.10;99.90
26599;DHT22;14240;51.064;16.612;2022-11-06T07:30:15;6.20;99.90
26599;DHT22;14240;51.064;16.612;2022-11-06T07:32:41;6.20;99.90
26599;DHT22;14240;51.064;16.612;2022-11-06T07:35:07;6.30;99.90
26599;DHT22;14240;51.064;16.612;2022-11-06T07:37:34;6.40;99.90
26599;DHT22;14240;51.064;16.612;2022-11-06T07:39:59;6.50;99.90
26599;DHT22;14240;51.064;16.612;2022-11-06T07:42:27;6.50;99.90
26599;DHT22;14240;51.064;16.612;2022-11-06T07:44:53;6.60;99.90
26599;DHT22;14240;51.064;16.612;2022-11-06T07:47:20;6.70;99.90
26599;DHT22;14240;51.064;16.612;2022-11-06T07:49:46;6.80;99.90
26599;DHT22;14240;51.064;16.612;2022-11-06T07:52:12;6.80;99.90
26599;DHT22;14240;51.064;16.612;2022-11-06T07:54:38;6.80;99.90
26599;DHT22;14240;51.064;16.612;2022-11-06T07:57:03;6.90;99.90
26599;DHT22;14240;51.064;16.612;2022-11-06T07:59:29;6.90;99.90
26599;DHT22;14240;51.064;16.612;2022-11-06T08:01:54;6.90;99.90
26599;DHT22;14240;51.064;16.612;2022-11-06T08:04:20;7.00;99.90
26599;DHT22;14240;51.064;16.612;2022-11-06T08:06:46;7.10;99.90
26599;DHT22;14240;51.064;16.612;2022-11-06T08:09:12;7.10;99.90
26599;DHT22;14240;51.064;16.612;2022-11-06T08:11:37;7.20;99.90
26599;DHT22;14240;51.064;16.612;2022-11-06T08:14:03;7.30;99.90
26599;DHT22;14240;51.064;16.612;2022-11-06T08:16:29;7.30;99.90
26599;DHT22;14240;51.064;16.612;2022-11-06T08:18:55;7.40;99.90
26599;DHT22;14240;51.064;16.612;2022-11-06T08:21:20;7.40;99.90
26599;DHT22;14240;51.064;16.612;2022-11-06T08:23:46;7.60;99.90
26599;DHT22;14240;51.064;16.612;2022-11-06T08:26:12;7.70;99.90
26599;DHT22;14240;51.064;16.612;2022-11-06T08:28:37;7.80;99.90
26599;DHT22;14240;51.064;16.612;2022-11-06T08:31:07;8.00;99.90
26599;DHT22;14240;51.064;16.612;2022-11-06T08:33:33;8.10;99.90
26599;DHT22;14240;51.064;16.612;2022-11-06T08:36:03;8.60;99.90
26599;DHT22;14240;51.064;16.612;2022-11-06T08:38:29;9.00;99.90
26599;DHT22;14240;51.064;16.612;2022-11-06T08:40:55;9.70;99.90
26599;DHT22;14240;51.064;16.612;2022-11-06T08:43:21;10.70;99.90
26599;DHT22;14240;51.064;16.612;2022-11-06T08:45:52;12.10;99.90
26599;DHT22;14240;51.064;16.612;2022-11-06T08:48:17;13.60;99.90
26599;DHT22;14240;51.064;16.612;2022-11-06T08:50:43;14.90;99.90
26599;DHT22;14240;51.064;16.612;2022-11-06T08:53:09;16.20;99.90
26599;DHT22;14240;51.064;16.612;2022-11-06T08:55:37;17.40;99.90
26599;DHT22;14240;51.064;16.612;2022-11-06T08:58:05;18.30;99.90
26599;DHT22;14240;51.064;16.612;2022-11-06T09:00:31;19.10;99.90
26599;DHT22;14240;51.064;16.612;2022-11-06T09:03:01;19.90;99.90
26599;DHT22;14240;51.064;16.612;2022-11-06T09:05:28;20.70;99.90
26599;DHT22;14240;51.064;16.612;2022-11-06T09:07:55;21.40;98.90
26599;DHT22;14240;51.064;16.612;2022-11-06T09:10:21;22.30;97.00
26599;DHT22;14240;51.064;16.612;2022-11-06T09:12:47;23.00;95.70
26599;DHT22;14240;51.064;16.612;2022-11-06T09:15:13;23.60;93.90
26599;DHT22;14240;51.064;16.612;2022-11-06T09:17:46;24.30;92.20
26599;DHT22;14240;51.064;16.612;2022-11-06T09:20:13;25.00;90.60
26599;DHT22;14240;51.064;16.612;2022-11-06T09:22:39;25.40;88.20
26599;DHT22;14240;51.064;16.612;2022-11-06T09:25:05;25.80;84.50
26599;DHT22;14240;51.064;16.612;2022-11-06T09:27:31;26.20;80.30
26599;DHT22;14240;51.064;16.612;2022-11-06T09:30:00;26.50;77.00
26599;DHT22;14240;51.064;16.612;2022-11-06T09:32:26;26.70;74.30
26599;DHT22;14240;51.064;16.612;2022-11-06T09:34:52;26.90;71.90
26599;DHT22;14240;51.064;16.612;2022-11-06T09:37:18;27.10;70.70
26599;DHT22;14240;51.064;16.612;2022-11-06T09:39:43;27.50;69.00
26599;DHT22;14240;51.064;16.612;2022-11-06T09:45:21;28.20;66.00
26599;DHT22;14240;51.064;16.612;2022-11-06T09:50:33;28.40;64.00
26599;DHT22;14240;51.064;16.612;2022-11-06T09:53:30;28.50;63.00
26599;DHT22;14240;51.064;16.612;2022-11-06T09:55:59;28.40;62.20
26599;DHT22;14240;51.064;16.612;2022-11-06T09:58:35;27.60;62.70
26599;DHT22;14240;51.064;16.612;2022-11-06T10:01:25;26.80;63.40
26599;DHT22;14240;51.064;16.612;2022-11-06T10:03:58;26.00;65.00
26599;DHT22;14240;51.064;16.612;2022-11-06T10:06:26;25.10;64.40
26599;DHT22;14240;51.064;16.612;2022-11-06T10:08:55;24.30;65.30
26599;DHT22;14240;51.064;16.612;2022-11-06T10:11:39;23.60;66.30
26599;DHT22;14240;51.064;16.612;2022-11-06T10:14:52;23.00;68.30
26599;DHT22;14240;51.064;16.612;2022-11-06T10:17:59;22.50;68.50
26599;DHT22;14240;51.064;16.612;2022-11-06T10:20:46;22.00;70.70
26599;DHT22;14240;51.064;16.612;2022-11-06T10:23:48;21.50;72.40
26599;DHT22;14240;51.064;16.612;2022-11-06T10:26:21;21.10;73.00
26599;DHT22;14240;51.064;16.612;2022-11-06T10:29:53;20.80;73.40
26599;DHT22;14240;51.064;16.612;2022-11-06T10:32:18;20.50;75.20
26599;DHT22;14240;51.064;16.612;2022-11-06T10:34:53;20.10;76.90
26599;DHT22;14240;51.064;16.612;2022-11-06T10:37:34;19.80;77.10
26599;DHT22;14240;51.064;16.612;2022-11-06T10:40:04;19.40;77.90
26599;DHT22;14240;51.064;16.612;2022-11-06T10:42:36;19.00;79.40
26599;DHT22;14240;51.064;16.612;2022-11-06T10:45:14;18.80;80.00
26599;DHT22;14240;51.064;16.612;2022-11-06T10:47:54;18.60;80.70
26599;DHT22;14240;51.064;16.612;2022-11-06T10:50:20;18.50;80.90
26599;DHT22;14240;51.064;16.612;2022-11-06T10:53:06;18.40;82.20
26599;DHT22;14240;51.064;16.612;2022-11-06T10:56:29;18.30;83.20
26599;DHT22;14240;51.064;16.612;2022-11-06T10:58:45;18.20;83.40
26599;DHT22;14240;51.064;16.612;2022-11-06T11:01:12;18.00;83.80
26599;DHT22;14240;51.064;16.612;2022-11-06T11:03:41;18.00;84.40
26599;DHT22;14240;51.064;16.612;2022-11-06T11:06:07;18.00;84.90
26599;DHT22;14240;51.064;16.612;2022-11-06T11:11:14;17.70;85.40
26599;DHT22;14240;51.064;16.612;2022-11-06T11:16:37;17.50;86.30
26599;DHT22;14240;51.064;16.612;2022-11-06T11:19:15;17.40;86.80
26599;DHT22;14240;51.064;16.612;2022-11-06T11:22:17;17.20;87.90
26599;DHT22;14240;51.064;16.612;2022-11-06T11:25:07;17.10;88.50
26599;DHT22;14240;51.064;16.612;2022-11-06T11:27:48;17.10;88.70
26599;DHT22;14240;51.064;16.612;2022-11-06T11:30:22;17.00;88.10
26599;DHT22;14240;51.064;16.612;2022-11-06T11:32:51;16.80;88.40
26599;DHT22;14240;51.064;16.612;2022-11-06T11:35:20;16.70;89.00
26599;DHT22;14240;51.064;16.612;2022-11-06T11:37:47;16.70;89.80
26599;DHT22;14240;51.064;16.612;2022-11-06T11:40:34;16.70;90.20
26599;DHT22;14240;51.064;16.612;2022-11-06T11:43:21;16.60;90.20
26599;DHT22;14240;51.064;16.612;2022-11-06T11:46:16;16.60;90.50
26599;DHT22;14240;51.064;16.612;2022-11-06T11:48:55;16.50;90.90
26599;DHT22;14240;51.064;16.612;2022-11-06T11:54:17;16.40;91.20
26599;DHT22;14240;51.064;16.612;2022-11-06T11:59:21;16.30;91.00
26599;DHT22;14240;51.064;16.612;2022-11-06T12:01:47;16.30;91.20
26599;DHT22;14240;51.064;16.612;2022-11-06T12:04:24;16.20;91.30
26599;DHT22;14240;51.064;16.612;2022-11-06T12:09:18;16.10;91.20
26599;DHT22;14240;51.064;16.612;2022-11-06T12:11:45;16.00;91.40
26599;DHT22;14240;51.064;16.612;2022-11-06T12:14:37;15.90;91.60
26599;DHT22;14240;51.064;16.612;2022-11-06T12:17:17;15.80;91.60
26599;DHT22;14240;51.064;16.612;2022-11-06T12:19:51;15.80;91.90
26599;DHT22;14240;51.064;16.612;2022-11-06T12:22:44;15.70;92.00
26599;DHT22;14240;51.064;16.612;2022-11-06T12:28:00;15.60;92.50
26599;DHT22;14240;51.064;16.612;2022-11-06T12:30:29;15.60;92.30
26599;DHT22;14240;51.064;16.612;2022-11-06T12:33:02;15.50;92.50
26599;DHT22;14240;51.064;16.612;2022-11-06T12:35:53;15.50;92.50
26599;DHT22;14240;51.064;16.612;2022-11-06T12:38:59;15.40;92.60
26599;DHT22;14240;51.064;16.612;2022-11-06T12:41:38;15.40;93.00
26599;DHT22;14240;51.064;16.612;2022-11-06T12:44:11;15.30;92.90
26599;DHT22;14240;51.064;16.612;2022-11-06T12:52:14;15.70;93.00
26599;DHT22;14240;51.064;16.612;2022-11-06T13:08:30;14.60;93.40
26599;DHT22;14240;51.064;16.612;2022-11-06T13:11:32;14.80;93.60
26599;DHT22;14240;51.064;16.612;2022-11-06T13:14:22;14.70;94.00
26599;DHT22;14240;51.064;16.612;2022-11-06T13:17:00;14.60;94.00
26599;DHT22;14240;51.064;16.612;2022-11-06T13:30:41;14.40;94.80
26599;DHT22;14240;51.064;16.612;2022-11-06T13:33:26;14.40;94.70
26599;DHT22;14240;51.064;16.612;2022-11-06T13:35:53;14.40;94.70
26599;DHT22;14240;51.064;16.612;2022-11-06T13:38:32;14.30;94.80
26599;DHT22;14240;51.064;16.612;2022-11-06T13:41:04;14.30;95.00
26599;DHT22;14240;51.064;16.612;2022-11-06T13:43:47;14.30;95.20
26599;DHT22;14240;51.064;16.612;2022-11-06T13:49:20;14.10;95.80
26599;DHT22;14240;51.064;16.612;2022-11-06T13:51:56;14.10;95.80
26599;DHT22;14240;51.064;16.612;2022-11-06T13:54:27;14.00;95.80
26599;DHT22;14240;51.064;16.612;2022-11-06T14:07:52;13.80;96.30
26599;DHT22;14240;51.064;16.612;2022-11-06T14:10:24;13.60;96.50
26599;DHT22;14240;51.064;16.612;2022-11-06T14:12:53;13.50;96.80
26599;DHT22;14240;51.064;16.612;2022-11-06T14:17:58;13.30;97.10
26599;DHT22;14240;51.064;16.612;2022-11-06T14:22:53;13.10;97.20
26599;DHT22;14240;51.064;16.612;2022-11-06T14:28:05;13.00;97.40
26599;DHT22;14240;51.064;16.612;2022-11-06T14:32:56;12.90;97.90
26599;DHT22;14240;51.064;16.612;2022-11-06T14:40:39;12.80;98.40
26599;DHT22;14240;51.064;16.612;2022-11-06T14:43:22;12.70;98.50
26599;DHT22;14240;51.064;16.612;2022-11-06T14:46:17;12.70;98.70
26599;DHT22;14240;51.064;16.612;2022-11-06T14:48:52;12.60;98.80
26599;DHT22;14240;51.064;16.612;2022-11-06T14:51:25;12.50;98.90
26599;DHT22;14240;51.064;16.612;2022-11-06T14:54:19;12.40;99.10
26599;DHT22;14240;51.064;16.612;2022-11-06T14:56:51;12.30;99.30
26599;DHT22;14240;51.064;16.612;2022-11-06T14:59:21;12.20;99.50
26599;DHT22;14240;51.064;16.612;2022-11-06T15:01:56;12.10;99.70
26599;DHT22;14240;51.064;16.612;2022-11-06T15:04:24;12.00;99.80
26599;DHT22;14240;51.064;16.612;2022-11-06T15:06:50;12.30;99.90
26599;DHT22;14240;51.064;16.612;2022-11-06T15:11:52;11.70;99.90
26599;DHT22;14240;51.064;16.612;2022-11-06T15:16:47;11.50;99.90
26599;DHT22;14240;51.064;16.612;2022-11-06T15:19:24;11.40;99.90
26599;DHT22;14240;51.064;16.612;2022-11-06T15:24:53;11.10;99.90
26599;DHT22;14240;51.064;16.612;2022-11-06T15:27:27;11.00;99.90
26599;DHT22;14240;51.064;16.612;2022-11-06T15:29:57;10.90;99.90
26599;DHT22;14240;51.064;16.612;2022-11-06T15:32:26;10.80;99.90
26599;DHT22;14240;51.064;16.612;2022-11-06T15:37:36;10.60;99.90
26599;DHT22;14240;51.064;16.612;2022-11-06T15:40:04;10.50;99.90
26599;DHT22;14240;51.064;16.612;2022-11-06T15:42:34;10.40;99.90
26599;DHT22;14240;51.064;16.612;2022-11-06T15:47:41;10.20;99.90
26599;DHT22;14240;51.064;16.612;2022-11-06T15:50:21;10.20;99.90
26599;DHT22;14240;51.064;16.612;2022-11-06T15:52:48;10.10;99.90
26599;DHT22;14240;51.064;16.612;2022-11-06T15:55:23;10.10;99.90
26599;DHT22;14240;51.064;16.612;2022-11-06T15:57:49;9.90;99.90
26599;DHT22;14240;51.064;16.612;2022-11-06T16:00:20;9.90;99.90
26599;DHT22;14240;51.064;16.612;2022-11-06T16:02:48;9.70;99.90
26599;DHT22;14240;51.064;16.612;2022-11-06T16:05:15;9.70;99.90
26599;DHT22;14240;51.064;16.612;2022-11-06T16:07:43;9.60;99.90
26599;DHT22;14240;51.064;16.612;2022-11-06T16:10:20;9.50;99.90
26599;DHT22;14240;51.064;16.612;2022-11-06T16:12:46;9.40;99.90
26599;DHT22;14240;51.064;16.612;2022-11-06T16:26:11;8.90;99.90
26599;DHT22;14240;51.064;16.612;2022-11-06T16:28:46;8.80;99.90
26599;DHT22;14240;51.064;16.612;2022-11-06T16:31:16;8.70;99.90
26599;DHT22;14240;51.064;16.612;2022-11-06T16:34:03;8.70;99.90
26599;DHT22;14240;51.064;16.612;2022-11-06T16:36:47;8.60;99.90
26599;DHT22;14240;51.064;16.612;2022-11-06T16:49:53;8.40;99.90
26599;DHT22;14240;51.064;16.612;2022-11-06T16:52:32;8.60;99.90
26599;DHT22;14240;51.064;16.612;2022-11-06T16:55:01;8.30;99.90
26599;DHT22;14240;51.064;16.612;2022-11-06T16:57:31;8.20;99.90
26599;DHT22;14240;51.064;16.612;2022-11-06T17:00:25;8.20;99.90
26599;DHT22;14240;51.064;16.612;2022-11-06T17:02:56;8.10;99.90
26599;DHT22;14240;51.064;16.612;2022-11-06T17:05:25;8.10;99.90
26599;DHT22;14240;51.064;16.612;2022-11-06T17:13:36;7.90;99.90
26599;DHT22;14240;51.064;16.612;2022-11-06T17:16:04;7.90;99.90
26599;DHT22;14240;51.064;16.612;2022-11-06T17:18:33;7.80;99.90
26599;DHT22;14240;51.064;16.612;2022-11-06T17:21:09;7.80;99.90
26599;DHT22;14240;51.064;16.612;2022-11-06T17:23:36;7.80;99.90
26599;DHT22;14240;51.064;16.612;2022-11-06T17:28:37;7.80;99.90
26599;DHT22;14240;51.064;16.612;2022-11-06T17:31:03;7.80;99.90
26599;DHT22;14240;51.064;16.612;2022-11-06T17:33:29;7.80;99.90
26599;DHT22;14240;51.064;16.612;2022-11-06T17:35:55;7.80;99.90
26599;DHT22;14240;51.064;16.612;2022-11-06T17:38:24;7.80;99.90
26599;DHT22;14240;51.064;16.612;2022-11-06T17:40:49;7.80;99.90
26599;DHT22;14240;51.064;16.612;2022-11-06T17:43:15;7.70;99.90
26599;DHT22;14240;51.064;16.612;2022-11-06T17:45:42;7.70;99.90
26599;DHT22;14240;51.064;16.612;2022-11-06T17:48:09;7.70;99.90
26599;DHT22;14240;51.064;16.612;2022-11-06T17:50:34;7.70;99.90
26599;DHT22;14240;51.064;16.612;2022-11-06T17:53:20;7.60;99.90
26599;DHT22;14240;51.064;16.612;2022-11-06T17:55:46;7.60;99.90
26599;DHT22;14240;51.064;16.612;2022-11-06T17:58:11;7.60;99.90
26599;DHT22;14240;51.064;16.612;2022-11-06T18:00:37;7.50;99.90
26599;DHT22;14240;51.064;16.612;2022-11-06T18:03:03;7.50;99.90
26599;DHT22;14240;51.064;16.612;2022-11-06T18:05:29;7.50;99.90
26599;DHT22;14240;51.064;16.612;2022-11-06T18:07:54;7.40;99.90
26599;DHT22;14240;51.064;16.612;2022-11-06T18:10:20;7.40;99.90
26599;DHT22;14240;51.064;16.612;2022-11-06T18:12:46;7.30;99.90
26599;DHT22;14240;51.064;16.612;2022-11-06T18:15:16;7.30;99.90
26599;DHT22;14240;51.064;16.612;2022-11-06T18:17:42;7.30;99.90
26599;DHT22;14240;51.064;16.612;2022-11-06T18:20:08;7.20;99.90
26599;DHT22;14240;51.064;16.612;2022-11-06T18:22:34;7.20;99.90
26599;DHT22;14240;51.064;16.612;2022-11-06T18:24:59;7.20;99.90
26599;DHT22;14240;51.064;16.612;2022-11-06T18:27:25;7.10;99.90
26599;DHT22;14240;51.064;16.612;2022-11-06T18:29:51;7.10;99.90
26599;DHT22;14240;51.064;16.612;2022-11-06T18:32:16;7.10;99.90
26599;DHT22;14240;51.064;16.612;2022-11-06T18:34:42;7.00;99.90